Stations météo

Publicité
Embrun, France (7591): Température de l'air & dewpoint: 20.06.2017 07:00:00 - 26.06.2017 07:00:00 (CEST)Embrun, France (7591): Température de l'air 5cm: 20.06.2017 07:00:00 - 26.06.2017 07:00:00 (CEST)Embrun, France (7591): Température de l'air -20cm & Température de l'air -100cm: 20.06.2017 07:00:00 - 26.06.2017 07:00:00 (CEST)Embrun, France (7591): Vitesse du vent & gusts: 20.06.2017 07:00:00 - 26.06.2017 07:00:00 (CEST)Embrun, France (7591): Direction du vent: 20.06.2017 07:00:00 - 26.06.2017 07:00:00 (CEST)Embrun, France (7591): visibility: 20.06.2017 07:00:00 - 26.06.2017 07:00:00 (CEST)Embrun, France (7591): Ensoleillement: 20.06.2017 07:00:00 - 26.06.2017 07:00:00 (CEST)Embrun, France (7591): Quantités de précipitations: 20.06.2017 07:00:00 - 26.06.2017 07:00:00 (CEST)
Date & Time tt [°C] td [°C] tt 5cm [°C] tt -20cm [°C] tt -100cm [°C] ff [km/h] ff [knt] fx [km/h] fx [knt] dd vv [km] sd [min] rr [mm]
26.06.2017 07:00:00 16,7 6,5 14,3 21,0 17,6 17 9 37 20 NNE 20 0 0,0
26.06.2017 06:00:00 15,9 6,9 12,6 21,1 17,7 15 8 33 18 NNE 20 0 0,0
26.06.2017 05:00:00 15,3 7,3 9,5 21,2 17,6 12 7 22 12 NE 20 0 0,0
26.06.2017 04:00:00 14,8 8,3 9,8 21,3 17,7 2 1 8 4 ESE 20 0 0,0
26.06.2017 03:00:00 15,2 8,7 11,4 21,3 17,6 5 3 13 7 ENE 20 0 0,0
26.06.2017 02:00:00 16,3 9,9 12,7 21,3 17,6 2 1 11 6 ENE 20 0 0,0
26.06.2017 01:00:00 16,9 9,8 13,4 21,3 17,6 7 4 14 8 NNE 20 0 0,0
26.06.2017 00:00:00 17,5 10,1 14,6 21,3 17,7 10 6 15 8 NE 20 0 0,0
25.06.2017 23:00:00 18,6 10,4 15,2 21,3 17,6 4 2 10 6 N 20 0 0,0
25.06.2017 22:00:00 20,3 11,0 16,3 21,2 17,6 3 1 12 7 WNW 20 0 0,0
25.06.2017 21:00:00 22,4 9,9 20,1 21,1 17,6 5 3 29 16 S 20 0 0,0
25.06.2017 20:00:00 25,3 8,3 24,2 21,0 17,6 9 5 31 17 SW 20 47 0,0
25.06.2017 19:00:00 26,7 8,6 28,5 20,8 17,6 16 9 36 19 SSW 20 60 0,0
25.06.2017 18:00:00 27,5 8,4 29,0 20,7 17,6 21 11 42 23 SW 20 60 0,0
25.06.2017 17:00:00 27,7 9,5 32,0 20,5 17,6 21 11 37 20 SSW 20 60 0,0
25.06.2017 16:00:00 27,3 10,9 33,3 20,4 17,6 21 12 40 21 SSW 20 60 0,0
25.06.2017 15:00:00 27,4 11,4 32,8 20,3 17,6 19 11 39 21 SW 20 60 0,0
25.06.2017 14:00:00 25,8 13,3 32,7 20,2 17,5 21 11 41 22 SSW 20 60 0,0
25.06.2017 13:00:00 25,5 13,7 32,7 20,2 17,5 18 10 35 19 SW 20 60 0,0
25.06.2017 12:00:00 24,1 14,2 30,9 20,3 17,5 16 9 30 16 SSW 20 60 0,0
25.06.2017 11:00:00 21,9 14,8 29,1 20,3 17,5 7 4 16 9 S 20 60 0,0
25.06.2017 10:00:00 20,6 15,2 20,0 20,5 17,5 3 2 9 5 E 20 53 0,0
25.06.2017 09:00:00 17,7 15,0 16,0 20,6 17,5 0 0 9 5 N 20 14 0,0
25.06.2017 08:00:00 16,2 14,7 14,2 20,8 17,6 3 2 6 3 E 19 25 0,0
25.06.2017 07:00:00 15,0 14,2 12,8 20,9 17,5 2 1 9 5 WNW 20 0 0,0
25.06.2017 06:00:00 14,7 13,7 12,1 21,1 17,5 5 3 19 10 SW 20 0 0,0
25.06.2017 05:00:00 15,0 13,4 11,5 21,4 17,5 4 2 60 33 N 20 0 12,7
25.06.2017 04:00:00 19,9 15,5 17,5 22,0 17,5 13 7 29 16 SSW 16 0 0,0
25.06.2017 03:00:00 18,5 14,8 17,1 22,0 17,5 4 2 11 6 S 20 0 0,0
25.06.2017 02:00:00 19,2 14,7 16,3 22,1 17,5 3 2 8 5 E 20 0 0,0
25.06.2017 01:00:00 19,6 14,4 16,0 22,0 17,5 3 1 5 3 E 20 0 0,0
25.06.2017 00:00:00 20,6 14,5 18,0 22,0 17,5 4 2 9 5 E 20 0 0,0
24.06.2017 23:00:00 21,4 14,8 18,4 22,0 17,5 3 1 9 5 E 20 0 0,0
24.06.2017 22:00:00 22,4 15,5 20,0 22,0 17,5 3 2 11 6 WSW 20 0 0,0
24.06.2017 21:00:00 23,5 16,0 21,8 21,9 17,5 3 1 8 5 ESE 20 0 0,0
24.06.2017 20:00:00 24,2 16,5 20,5 21,8 17,5 4 2 16 9 ESE 20 0 0,2
24.06.2017 19:00:00 25,5 14,9 23,0 21,7 17,4 8 4 22 12 SSW 20 8 0,0
24.06.2017 18:00:00 27,0 14,1 21,3 21,6 17,4 18 10 43 23 WNW 20 20 0,2
24.06.2017 17:00:00 30,9 11,3 31,6 21,5 17,4 13 7 26 14 W 20 20 0,0
24.06.2017 16:00:00 32,2 11,4 33,4 21,4 17,4 15 8 34 18 SW 20 18 0,0
24.06.2017 15:00:00 32,5 12,7 38,8 21,4 17,4 18 10 34 18 SSW 20 60 0,0
24.06.2017 14:00:00 32,5 11,6 40,0 21,3 17,4 16 9 37 20 SW 20 60 0,0
24.06.2017 13:00:00 30,3 14,4 38,2 21,3 17,4 13 7 26 14 SSW 20 60 0,0
24.06.2017 12:00:00 27,9 13,8 29,1 21,4 17,4 10 5 17 9 SSW 20 51 0,0
24.06.2017 11:00:00 26,4 13,2 28,1 21,4 17,4 8 5 20 11 S 20 41 0,0
24.06.2017 10:00:00 25,7 12,5 24,2 21,5 17,4 10 5 28 15 ENE 20 60 0,0
24.06.2017 09:00:00 23,1 12,1 22,3 21,6 17,4 14 8 29 15 NNE 20 60 0,0
24.06.2017 08:00:00 21,1 11,4 17,3 21,6 17,4 18 10 30 16 NNE 20 53 0,0
24.06.2017 07:00:00 18,3 10,9 16,8 21,7 17,4 12 6 31 17 NE 20 0 0,0
24.06.2017 06:00:00 18,2 11,0 16,3 21,8 17,4 14 8 21 12 NE 20 0 0,0
24.06.2017 05:00:00 19,6 11,1 16,2 21,8 17,4 14 8 25 14 NNE 20 0 0,0
24.06.2017 04:00:00 19,5 11,5 17,2 21,9 17,4 9 5 23 12 NE 20 0 0,0
24.06.2017 03:00:00 19,6 12,4 17,8 21,9 17,4 12 6 19 10 NNE 20 0 0,0
24.06.2017 02:00:00 20,3 12,5 17,2 21,9 17,4 11 6 20 11 NNE 20 0 0,0
24.06.2017 01:00:00 21,0 13,2 17,1 21,9 17,4 2 1 5 3 N 20 0 0,0
24.06.2017 00:00:00 21,8 12,6 18,7 21,9 17,3 6 4 10 5 ENE 20 0 0,0
23.06.2017 23:00:00 23,6 12,6 20,5 21,8 17,3 3 1 6 4 NW 20 0 0,0
23.06.2017 22:00:00 24,4 12,4 21,9 21,8 17,4 4 2 9 5 NNW 20 0 0,0
23.06.2017 21:00:00 26,9 12,2 24,3 21,7 17,4 5 3 13 7 S 20 0 0,0
23.06.2017 20:00:00 29,0 10,2 28,1 21,6 17,3 4 2 34 19 SE 20 0 0,0
23.06.2017 19:00:00 30,4 9,3 31,1 21,5 17,3 13 7 40 22 W 20 9 0,0
23.06.2017 18:00:00 31,6 9,8 33,6 21,4 17,3 16 9 38 21 SSW 20 55 0,0
23.06.2017 17:00:00 32,6 11,7 38,0 21,3 17,3 20 11 37 20 SSW 20 60 0,0
23.06.2017 16:00:00 32,3 12,5 33,2 21,2 17,3 19 10 36 19 SSW 20 53 0,0
23.06.2017 15:00:00 31,9 15,0 37,5 21,1 17,3 15 8 31 17 S 20 60 0,0
23.06.2017 14:00:00 30,1 15,0 35,6 21,1 17,3 13 7 26 14 SSW 20 60 0,0
23.06.2017 13:00:00 29,3 14,3 35,1 21,1 17,3 10 6 18 10 SSW 20 60 0,0
23.06.2017 12:00:00 28,2 14,8 36,6 21,2 17,3 8 4 17 9 S 20 60 0,0
23.06.2017 11:00:00 26,6 14,4 33,1 21,2 17,3 5 3 15 8 SSE 19 60 0,0
23.06.2017 10:00:00 24,9 14,1 23,8 21,3 17,3 9 5 29 16 NE 17 60 0,0
23.06.2017 09:00:00 22,9 13,7 21,4 21,3 17,3 16 9 32 17 NNE 20 60 0,0
23.06.2017 08:00:00 20,7 13,4 16,8 21,4 17,3 11 6 33 18 NNE 20 44 0,0
23.06.2017 07:00:00 17,6 12,7 16,5 21,5 17,3 16 9 31 17 NNE 20 0 0,0
23.06.2017 06:00:00 18,1 13,0 16,3 21,6 17,3 12 6 32 17 NNE 20 0 0,0
23.06.2017 05:00:00 18,6 13,2 16,3 21,6 17,3 12 7 21 12 NE 20 0 0,0
23.06.2017 04:00:00 18,6 13,9 16,2 21,6 17,3 12 6 19 10 NNE 20 0 0,0
23.06.2017 03:00:00 18,3 14,2 15,1 21,7 17,3 9 5 16 9 NNE 20 0 0,0
23.06.2017 02:00:00 19,4 14,9 15,3 21,7 17,3 4 2 9 5 ENE 20 0 0,0
23.06.2017 01:00:00 19,4 15,5 16,6 21,7 17,3 4 2 6 4 N 20 0 0,0
23.06.2017 00:00:00 21,0 15,8 17,6 21,7 17,3 0 0 7 4 N 20 0 0,0
22.06.2017 23:00:00 21,8 15,9 18,7 21,6 17,2 3 1 8 4 E 20 0 0,0
22.06.2017 22:00:00 23,5 16,3 21,4 21,5 17,2 4 2 11 6 SSW 20 0 0,0
22.06.2017 21:00:00 25,7 16,3 24,9 21,5 17,2 4 2 14 8 SW 20 0 0,0
22.06.2017 20:00:00 25,6 16,4 26,0 21,4 17,2 6 3 36 19 S 20 0 0,0
22.06.2017 19:00:00 27,0 15,1 27,7 21,3 17,2 14 8 32 17 WSW 20 0 0,0
22.06.2017 18:00:00 27,9 14,5 29,2 21,1 17,2 19 10 42 23 SW 20 24 0,0
22.06.2017 17:00:00 30,0 13,7 33,2 20,9 17,2 21 11 36 19 SSW 20 56 0,0
22.06.2017 16:00:00 30,9 13,7 37,0 20,8 17,2 20 11 41 22 SW 19 60 0,0
22.06.2017 15:00:00 30,3 14,4 36,7 20,7 17,2 19 10 36 19 SSW 20 60 0,0
22.06.2017 14:00:00 28,9 14,3 36,5 20,7 17,2 17 9 31 17 SSW 20 60 0,0
22.06.2017 13:00:00 27,5 13,8 36,0 20,7 17,2 10 6 18 10 S 20 60 0,0
22.06.2017 12:00:00 24,9 13,8 32,9 20,7 17,2 10 5 16 9 SW 20 60 0,0
22.06.2017 11:00:00 23,3 13,7 30,0 20,8 17,2 6 4 14 8 SSE 20 60 0,0
22.06.2017 10:00:00 21,3 13,2 19,8 20,9 17,2 5 3 12 6 SSE 20 60 0,0
22.06.2017 09:00:00 18,8 12,8 17,9 20,9 17,2 6 3 11 6 S 20 60 0,0
22.06.2017 08:00:00 17,2 12,3 13,7 21,0 17,2 4 2 18 10 E 20 54 0,0
22.06.2017 07:00:00 14,6 11,4 13,0 21,1 17,1 10 6 24 13 NE 20 0 0,0
22.06.2017 06:00:00 14,8 11,2 12,6 21,2 17,1 11 6 20 11 NNE 20 0 0,0
22.06.2017 05:00:00 15,7 11,5 14,0 21,3 17,1 13 7 41 22 NNE 20 0 0,0
22.06.2017 04:00:00 16,6 11,7 15,2 21,4 17,1 21 12 38 21 N 20 0 0,0
22.06.2017 03:00:00 16,5 11,8 15,1 21,4 17,1 23 12 38 20 NNE 20 0 0,0
22.06.2017 02:00:00 16,9 12,2 13,7 21,5 17,1 23 12 42 23 N 20 0 0,0
22.06.2017 01:00:00 16,2 12,7 13,8 21,5 17,1 11 6 27 15 NNE 20 0 0,0
22.06.2017 00:00:00 16,1 13,4 13,2 21,6 17,1 11 6 30 16 NNE 20 0 0,0
21.06.2017 23:00:00 15,5 13,7 13,7 21,6 17,1 10 5 20 11 NE 20 0 0,0
21.06.2017 22:00:00 15,5 14,9 13,7 21,5 17,1 6 3 13 7 NE 15 0 0,0
21.06.2017 21:00:00 16,4 15,1 14,7 21,5 17,1 0 0 21 11 N 16 0 0,0
21.06.2017 20:00:00 16,6 15,6 15,8 21,5 17,1 10 5 15 8 NW 17 0 0,4
21.06.2017 19:00:00 17,4 15,6 16,3 21,4 17,0 8 4 21 11 SSW 11 0 1,8
21.06.2017 18:00:00 17,7 15,3 15,8 21,2 17,0 6 3 57 31 NNE 18 0 2,6
21.06.2017 17:00:00 23,0 14,8 20,4 21,2 17,0 22 12 39 21 NNE 11 0 0,2
21.06.2017 16:00:00 29,4 12,8 30,7 21,1 17,0 19 11 41 22 SW 18 31 0,0
21.06.2017 15:00:00 31,1 12,5 37,6 21,0 17,1 22 12 41 22 SW 20 60 0,0
21.06.2017 14:00:00 30,1 12,5 37,5 21,0 17,0 24 13 37 20 SSW 20 60 0,0
21.06.2017 13:00:00 29,6 12,5 36,4 20,9 17,0 19 10 35 19 SW 20 60 0,0
21.06.2017 12:00:00 27,8 14,1 34,3 21,0 17,0 18 10 31 17 S 20 60 0,0
21.06.2017 11:00:00 26,1 13,2 32,4 21,1 17,0 10 5 18 10 S 20 60 0,0
21.06.2017 10:00:00 23,5 12,8 23,3 21,1 17,0 9 5 16 9 SSW 19 60 0,0
21.06.2017 09:00:00 22,5 11,6 21,2 21,2 17,0 8 4 20 11 ENE 20 60 0,0
21.06.2017 08:00:00 20,5 12,5 14,9 21,2 17,0 13 7 20 11 NNE 20 53 0,0
21.06.2017 07:00:00 16,4 12,0 13,2 21,3 17,0 7 4 10 5 NE 20 0 0,0
21.06.2017 06:00:00 16,8 12,1 14,2 21,4 17,0 2 1 14 8 NNE 20 0 0,0
21.06.2017 05:00:00 17,0 12,3 13,9 21,4 17,0 4 2 6 3 E 20 0 0,0
21.06.2017 04:00:00 17,5 12,4 14,7 21,5 17,0 3 1 5 3 E 20 0 0,0
21.06.2017 03:00:00 18,8 12,5 15,9 21,5 17,0 2 1 8 4 E 20 0 0,0
21.06.2017 02:00:00 19,5 12,3 16,0 21,5 17,0 4 2 7 4 N 20 0 0,0
21.06.2017 01:00:00 20,3 12,5 17,2 21,5 17,0 5 3 9 5 N 20 0 0,0
21.06.2017 00:00:00 21,9 12,4 18,1 21,5 16,9 2 1 15 8 WNW 20 0 0,0
20.06.2017 23:00:00 23,1 12,1 21,5 21,5 16,9 7 4 14 7 S 20 0 0,0
20.06.2017 22:00:00 24,2 11,8 22,5 21,4 16,9 5 3 32 17 S 20 0 0,0
20.06.2017 21:00:00 26,4 10,9 25,5 21,3 16,9 17 9 35 19 SW 20 0 0,0
20.06.2017 20:00:00 28,1 10,3 27,8 21,2 16,9 19 10 35 19 SW 20 46 0,0
20.06.2017 19:00:00 29,3 10,4 30,9 21,1 16,9 19 10 35 19 SSW 19 60 0,0
20.06.2017 18:00:00 30,1 10,1 31,7 21,0 16,9 21 11 37 20 SSW 20 60 0,0
20.06.2017 17:00:00 30,8 9,6 35,6 20,9 16,9 20 11 41 22 SSW 20 60 0,0
20.06.2017 16:00:00 31,0 10,4 37,3 20,8 16,9 17 9 39 21 SW 20 60 0,0
20.06.2017 15:00:00 30,6 10,5 37,5 20,7 16,9 15 8 35 19 SW 20 60 0,0
20.06.2017 14:00:00 29,7 10,3 37,7 20,7 16,9 16 8 35 19 SW 20 60 0,0
20.06.2017 13:00:00 29,0 11,5 35,5 20,7 16,8 18 10 38 21 SW 20 60 0,0
20.06.2017 12:00:00 27,3 13,6 34,1 20,7 16,8 13 7 26 14 S 20 60 0,0
20.06.2017 11:00:00 24,9 13,8 31,6 20,8 16,8 9 5 16 8 SW 20 60 0,0
20.06.2017 10:00:00 23,3 13,2 22,3 20,9 16,9 4 2 13 7 E 20 60 0,0
20.06.2017 09:00:00 21,2 12,9 19,8 20,9 16,8 7 4 14 8 ENE 20 60 0,0
20.06.2017 08:00:00 18,4 12,6 13,5 21,0 16,8 8 4 15 8 NE 20 54 0,0
20.06.2017 07:00:00 15,1 11,7 12,0 21,1 16,8 4 2 8 4 ESE 20 0 0,0

tt = Température de l'air
td = dewpoint
tt 5cm = Température de l'air 5cm
tt -20cm = Température de l'air -20cm
tt -100cm = Température de l'air -100cm
ff = Vitesse du vent
fx = gusts
dd = Direction du vent
vv = visibility
sd = Ensoleillement
rr = Quantités de précipitations

stations d'obs. à proximité